createdAt,value
2022-08-29T00:00:31.550Z,100875
2022-08-29T00:06:25.534Z,100872
2022-08-29T00:12:16.612Z,100872
2022-08-29T00:18:08.866Z,100879
2022-08-29T00:24:01.320Z,100865
2022-08-29T00:29:49.940Z,100869
2022-08-29T00:35:43.759Z,100870
2022-08-29T00:41:38.385Z,100869
2022-08-29T00:47:31.369Z,100873
2022-08-29T00:53:22.473Z,100883
2022-08-29T00:59:15.431Z,100877
2022-08-29T01:05:06.911Z,100880
2022-08-29T01:10:58.476Z,100885
2022-08-29T01:16:50.885Z,100890
2022-08-29T01:22:43.955Z,100889
2022-08-29T01:28:35.669Z,100900
2022-08-29T01:34:27.058Z,100900
2022-08-29T01:40:18.350Z,100912
2022-08-29T01:46:11.318Z,100917
2022-08-29T01:52:03.610Z,100909
2022-08-29T01:57:55.890Z,100913
2022-08-29T02:03:46.101Z,100918
2022-08-29T02:09:38.511Z,100918
2022-08-29T02:15:36.051Z,100915
2022-08-29T02:21:26.996Z,100922
2022-08-29T02:27:18.256Z,100922
2022-08-29T02:33:09.780Z,100914
2022-08-29T02:39:00.792Z,100909
2022-08-29T02:44:53.376Z,100910
2022-08-29T02:50:44.960Z,100915
2022-08-29T02:56:35.751Z,100912
2022-08-29T03:02:26.936Z,100908
2022-08-29T03:08:18.066Z,100910
2022-08-29T03:14:08.127Z,100893
2022-08-29T03:19:59.164Z,100901
2022-08-29T03:25:49.927Z,100894
2022-08-29T03:31:39.742Z,100895
2022-08-29T03:37:32.108Z,100891
2022-08-29T03:43:23.636Z,100890
2022-08-29T03:49:14.738Z,100895
2022-08-29T03:55:05.489Z,100902
2022-08-29T04:00:55.923Z,100907
2022-08-29T04:06:46.529Z,100905
2022-08-29T04:12:37.581Z,100903
2022-08-29T04:18:29.157Z,100904
2022-08-29T04:24:20.058Z,100914
2022-08-29T04:30:12.354Z,100917
2022-08-29T04:36:05.305Z,100912
2022-08-29T04:42:01.299Z,100913
2022-08-29T04:47:54.845Z,100917
2022-08-29T04:53:51.371Z,100917
2022-08-29T04:59:43.491Z,100910
2022-08-29T05:05:34.800Z,100911
2022-08-29T05:11:26.362Z,100909
2022-08-29T05:17:17.637Z,100914
2022-08-29T05:23:09.050Z,100916
2022-08-29T05:29:03.398Z,100927
2022-08-29T05:34:59.034Z,100941
2022-08-29T05:40:51.810Z,100945
2022-08-29T05:46:43.420Z,100933
2022-08-29T05:52:37.121Z,100944
2022-08-29T05:58:29.316Z,100949
2022-08-29T06:04:18.911Z,100950
2022-08-29T06:10:11.140Z,100952
2022-08-29T06:16:03.909Z,100964
2022-08-29T06:21:55.743Z,100968
2022-08-29T06:27:47.505Z,100970
2022-08-29T06:33:37.180Z,100967
2022-08-29T06:39:26.280Z,100965
2022-08-29T06:45:14.744Z,100963
2022-08-29T06:51:05.365Z,100965
2022-08-29T06:56:54.372Z,100974
2022-08-29T07:02:43.569Z,100974
2022-08-29T07:08:57.548Z,100969
2022-08-29T07:14:45.354Z,100974
2022-08-29T07:20:39.064Z,100982
2022-08-29T07:26:30.664Z,100985
2022-08-29T07:32:26.769Z,100987
2022-08-29T07:38:15.640Z,100987
2022-08-29T07:44:04.269Z,100991
2022-08-29T07:49:54.679Z,100984
2022-08-29T07:55:45.313Z,100985
2022-08-29T08:01:35.216Z,100979
2022-08-29T08:07:33.118Z,100977
2022-08-29T08:13:26.048Z,100978
2022-08-29T08:19:15.618Z,100978
2022-08-29T08:25:06.259Z,100980
2022-08-29T08:30:54.495Z,100982
2022-08-29T08:36:50.401Z,100987
2022-08-29T08:42:42.519Z,100985
2022-08-29T08:48:35.453Z,100993
2022-08-29T08:54:25.285Z,100989
2022-08-29T09:00:17.237Z,100980
2022-08-29T09:06:08.234Z,100987
2022-08-29T09:11:58.323Z,100977
2022-08-29T09:17:48.909Z,100983
2022-08-29T09:23:39.387Z,100976
2022-08-29T09:29:32.806Z,100983
2022-08-29T09:35:22.917Z,100972
2022-08-29T09:41:13.024Z,100975
2022-08-29T09:47:03.280Z,100977
2022-08-29T09:52:54.025Z,100971
2022-08-29T09:58:43.997Z,100968
2022-08-29T10:04:35.869Z,100964
2022-08-29T10:10:28.331Z,100955
2022-08-29T10:16:20.833Z,100956
2022-08-29T10:22:12.822Z,100966
2022-08-29T10:28:04.210Z,100950
2022-08-29T10:33:56.629Z,100946
2022-08-29T10:39:49.566Z,100933
2022-08-29T10:45:46.037Z,100936
2022-08-29T10:51:37.045Z,100923
2022-08-29T10:57:28.084Z,100917
2022-08-29T11:03:20.175Z,100921
2022-08-29T11:09:12.875Z,100906
2022-08-29T11:15:04.012Z,100901
2022-08-29T11:20:56.847Z,100897
2022-08-29T11:26:49.759Z,100897
2022-08-29T11:32:41.025Z,100888
2022-08-29T11:38:32.117Z,100875
2022-08-29T11:44:25.729Z,100873
2022-08-29T11:50:16.665Z,100869
2022-08-29T11:56:08.288Z,100856
2022-08-29T12:02:01.830Z,100855
2022-08-29T12:07:52.555Z,100849
2022-08-29T12:13:45.260Z,100845
2022-08-29T12:19:37.710Z,100833
2022-08-29T12:25:28.003Z,100829
2022-08-29T12:31:19.344Z,100826
2022-08-29T12:37:12.262Z,100819
2022-08-29T12:43:05.361Z,100820
2022-08-29T12:49:01.114Z,100815
2022-08-29T12:54:57.643Z,100806
2022-08-29T13:00:48.648Z,100794
2022-08-29T13:06:39.701Z,100790
2022-08-29T13:12:31.158Z,100789
2022-08-29T13:18:21.295Z,100781
2022-08-29T13:24:11.980Z,100786
2022-08-29T13:30:03.707Z,100784
2022-08-29T13:35:56.332Z,100779
2022-08-29T13:41:47.201Z,100777
2022-08-29T13:47:37.680Z,100767
2022-08-29T13:53:28.943Z,100767
2022-08-29T13:59:20.119Z,100761
2022-08-29T14:05:11.515Z,100760
2022-08-29T14:11:02.574Z,100753
2022-08-29T14:16:59.854Z,100756
2022-08-29T14:22:51.407Z,100753
2022-08-29T14:28:49.568Z,100737
2022-08-29T14:34:41.201Z,100748
2022-08-29T14:40:46.199Z,100744
2022-08-29T14:46:37.206Z,100734
2022-08-29T14:52:32.499Z,100730
2022-08-29T14:58:22.974Z,100734
2022-08-29T15:04:15.519Z,100733
2022-08-29T15:10:23.625Z,100728
2022-08-29T15:16:15.469Z,100720
2022-08-29T15:22:07.474Z,100710
2022-08-29T15:27:59.344Z,100707
2022-08-29T15:33:52.763Z,100702
2022-08-29T15:39:45.306Z,100699
2022-08-29T15:45:40.545Z,100695
2022-08-29T15:51:35.018Z,100691
2022-08-29T15:57:26.784Z,100691
2022-08-29T16:03:17.895Z,100695
2022-08-29T16:09:18.444Z,100684
2022-08-29T16:15:12.859Z,100678
2022-08-29T16:21:05.290Z,100669
2022-08-29T16:26:57.355Z,100672
2022-08-29T16:32:48.360Z,100665
2022-08-29T16:38:39.278Z,100668
2022-08-29T16:44:30.674Z,100674
2022-08-29T16:50:21.631Z,100685
2022-08-29T16:56:13.671Z,100678
2022-08-29T17:02:05.248Z,100678
2022-08-29T17:07:56.860Z,100660
2022-08-29T17:13:48.504Z,100663
2022-08-29T17:19:40.249Z,100663
2022-08-29T17:25:31.076Z,100662
2022-08-29T17:31:22.736Z,100668
2022-08-29T17:37:14.981Z,100651
2022-08-29T17:43:05.753Z,100652
2022-08-29T17:48:57.084Z,100663
2022-08-29T17:54:53.370Z,100667
2022-08-29T18:00:44.978Z,100664
2022-08-29T18:06:36.344Z,100664
2022-08-29T18:12:29.144Z,100657
2022-08-29T18:18:20.391Z,100662
2022-08-29T18:24:14.116Z,100661
2022-08-29T18:31:22.358Z,100670
2022-08-29T18:37:11.987Z,100656
2022-08-29T18:43:04.583Z,100671
2022-08-29T18:48:59.496Z,100679
2022-08-29T18:54:53.291Z,100675
2022-08-29T19:00:44.815Z,100681
2022-08-29T19:06:37.256Z,100681
2022-08-29T19:12:29.765Z,100684
2022-08-29T19:18:21.040Z,100683
2022-08-29T19:24:11.690Z,100693
2022-08-29T19:30:08.405Z,100689
2022-08-29T19:35:59.017Z,100697
2022-08-29T19:41:51.919Z,100690
2022-08-29T19:47:44.736Z,100701
2022-08-29T19:53:38.503Z,100707
2022-08-29T19:59:34.683Z,100697
2022-08-29T20:05:32.170Z,100690
2022-08-29T20:11:23.882Z,100690
2022-08-29T20:17:14.840Z,100691
2022-08-29T20:23:06.840Z,100700
2022-08-29T20:28:58.450Z,100704
2022-08-29T20:34:51.622Z,100696
2022-08-29T20:40:43.997Z,100693
2022-08-29T20:46:34.954Z,100708
2022-08-29T20:53:37.265Z,100709
2022-08-29T20:59:34.626Z,100709
2022-08-29T21:05:30.646Z,100716
2022-08-29T21:11:21.069Z,100719
2022-08-29T21:17:12.783Z,100720
2022-08-29T21:23:04.744Z,100716
2022-08-29T21:28:58.275Z,100704
2022-08-29T21:35:53.991Z,100708
2022-08-29T21:41:45.403Z,100703
2022-08-29T21:47:38.736Z,100708
2022-08-29T21:53:29.625Z,100714
2022-08-29T21:59:29.358Z,100715
2022-08-29T22:05:22.256Z,100721
2022-08-29T22:11:13.651Z,100720
2022-08-29T22:17:04.556Z,100727
2022-08-29T22:22:55.859Z,100720
2022-08-29T22:28:47.950Z,100732
2022-08-29T22:34:40.168Z,100728
2022-08-29T22:40:31.678Z,100732
2022-08-29T22:46:23.065Z,100733
2022-08-29T22:52:14.698Z,100745
2022-08-29T22:58:06.578Z,100743
2022-08-29T23:03:56.419Z,100736
2022-08-29T23:09:45.880Z,100735
2022-08-29T23:15:37.382Z,100730
2022-08-29T23:21:30.494Z,100734
2022-08-29T23:27:22.013Z,100726
2022-08-29T23:33:13.272Z,100735
2022-08-29T23:39:05.393Z,100727
2022-08-29T23:44:57.914Z,100726
2022-08-29T23:50:52.263Z,100723
2022-08-29T23:56:42.799Z,100715
